createdAt,value
2018-01-10T00:01:26.057Z,1.10
2018-01-10T00:03:53.559Z,1.63
2018-01-10T00:06:21.083Z,1.57
2018-01-10T00:08:48.963Z,2.17
2018-01-10T00:11:16.473Z,1.60
2018-01-10T00:13:44.391Z,1.13
2018-01-10T00:16:12.278Z,1.73
2018-01-10T00:18:39.902Z,2.03
2018-01-10T00:21:07.398Z,1.83
2018-01-10T00:23:34.913Z,1.67
2018-01-10T00:26:03.176Z,2.67
2018-01-10T00:28:31.099Z,1.60
2018-01-10T00:30:59.015Z,1.00
2018-01-10T00:33:26.532Z,1.40
2018-01-10T00:35:54.431Z,1.30
2018-01-10T00:38:21.955Z,1.50
2018-01-10T00:40:49.851Z,1.60
2018-01-10T00:43:17.738Z,0.90
2018-01-10T00:45:45.250Z,1.80
2018-01-10T00:48:13.148Z,1.43
2018-01-10T00:50:41.059Z,1.80
2018-01-10T00:53:08.582Z,1.70
2018-01-10T00:55:36.098Z,2.20
2018-01-10T00:58:03.602Z,1.03
2018-01-10T01:00:31.119Z,1.50
2018-01-10T01:02:58.614Z,1.50
2018-01-10T01:05:26.894Z,1.27
2018-01-10T01:07:54.782Z,1.20
2018-01-10T01:10:22.690Z,1.33
2018-01-10T01:12:50.190Z,1.13
2018-01-10T01:15:17.702Z,1.30
2018-01-10T01:17:45.234Z,1.20
2018-01-10T01:20:13.866Z,0.97
2018-01-10T01:22:42.139Z,0.67
2018-01-10T01:25:09.626Z,0.90
2018-01-10T01:27:37.555Z,1.40
2018-01-10T01:30:05.055Z,0.90
2018-01-10T01:32:33.726Z,0.57
2018-01-10T01:35:01.222Z,1.33
2018-01-10T01:37:29.127Z,1.00
2018-01-10T01:39:57.015Z,1.10
2018-01-10T01:42:25.296Z,0.93
2018-01-10T01:44:53.271Z,1.60
2018-01-10T01:47:20.791Z,2.13
2018-01-10T01:49:48.294Z,1.87
2018-01-10T01:52:15.807Z,2.30
2018-01-10T01:54:43.728Z,2.13
2018-01-10T01:57:11.247Z,1.93
2018-01-10T01:59:39.541Z,1.33
2018-01-10T02:02:07.043Z,1.07
2018-01-10T02:04:34.560Z,1.17
2018-01-10T02:07:02.060Z,1.20
2018-01-10T02:09:29.595Z,0.90
2018-01-10T02:11:57.093Z,1.23
2018-01-10T02:14:25.047Z,0.93
2018-01-10T02:16:52.943Z,1.70
2018-01-10T02:19:20.435Z,1.10
2018-01-10T02:21:47.963Z,0.70
2018-01-10T02:24:15.455Z,1.03
2018-01-10T02:26:42.976Z,1.07
2018-01-10T02:29:11.231Z,1.67
2018-01-10T02:31:39.139Z,1.10
2018-01-10T02:34:07.030Z,1.27
2018-01-10T02:36:34.950Z,1.70
2018-01-10T02:39:02.444Z,1.50
2018-01-10T02:41:30.327Z,1.83
2018-01-10T02:43:58.247Z,2.23
2018-01-10T02:46:25.773Z,2.00
2018-01-10T02:48:53.299Z,1.83
2018-01-10T02:51:21.189Z,1.50
2018-01-10T02:53:49.482Z,1.30
2018-01-10T02:56:16.970Z,1.00
2018-01-10T02:58:44.500Z,0.90
2018-01-10T03:01:12.394Z,1.00
2018-01-10T03:03:40.413Z,1.00
2018-01-10T03:06:08.311Z,1.20
2018-01-10T03:08:35.933Z,0.83
2018-01-10T03:11:03.427Z,0.83
2018-01-10T03:13:30.927Z,1.17
2018-01-10T03:15:58.842Z,1.50
2018-01-10T03:18:26.742Z,0.90
2018-01-10T03:20:55.023Z,1.27
2018-01-10T03:23:22.921Z,1.13
2018-01-10T03:25:51.215Z,1.37
2018-01-10T03:28:19.114Z,1.47
2018-01-10T03:30:47.035Z,1.80
2018-01-10T03:33:14.536Z,1.53
2018-01-10T03:35:42.443Z,1.43
2018-01-10T03:38:09.965Z,1.10
2018-01-10T03:43:58.966Z,0.80
2018-01-10T03:46:26.467Z,0.77
2018-01-10T03:48:53.978Z,0.80
2018-01-10T03:51:21.474Z,0.83
2018-01-10T03:53:49.385Z,1.03
2018-01-10T03:56:17.275Z,0.77
2018-01-10T03:58:45.187Z,1.27
2018-01-10T04:01:13.831Z,0.77
2018-01-10T04:03:41.764Z,1.13
2018-01-10T04:06:09.265Z,1.10
2018-01-10T04:08:36.790Z,1.40
2018-01-10T04:11:04.293Z,0.90
2018-01-10T04:13:32.218Z,1.20
2018-01-10T04:15:59.732Z,1.37
2018-01-10T04:18:27.635Z,0.97
2018-01-10T04:20:55.174Z,0.80
2018-01-10T04:23:23.066Z,0.60
2018-01-10T04:25:50.583Z,0.90
2018-01-10T04:28:18.466Z,1.03
2018-01-10T04:30:46.381Z,1.00
2018-01-10T04:33:13.886Z,1.07
2018-01-10T04:35:41.406Z,1.00
2018-01-10T04:38:09.304Z,1.00
2018-01-10T04:40:36.851Z,1.10
2018-01-10T04:43:04.342Z,0.80
2018-01-10T04:45:33.004Z,0.90
2018-01-10T04:48:00.910Z,1.20
2018-01-10T04:50:28.815Z,0.70
2018-01-10T04:52:57.471Z,1.00
2018-01-10T04:55:25.362Z,1.07
2018-01-10T04:57:53.274Z,1.07
2018-01-10T05:00:21.170Z,1.10
2018-01-10T05:02:48.699Z,1.50
2018-01-10T05:05:16.599Z,1.10
2018-01-10T05:07:44.512Z,1.00
2018-01-10T05:10:12.453Z,1.00
2018-01-10T05:12:39.997Z,0.77
2018-01-10T05:15:07.487Z,1.07
2018-01-10T05:17:35.394Z,1.10
2018-01-10T05:20:02.878Z,0.90
2018-01-10T05:22:30.775Z,1.27
2018-01-10T05:24:58.678Z,0.73
2018-01-10T05:27:26.947Z,1.10
2018-01-10T05:29:54.863Z,1.60
2018-01-10T05:32:22.358Z,1.23
2018-01-10T05:34:49.898Z,1.30
2018-01-10T05:37:17.809Z,1.30
2018-01-10T05:39:45.331Z,1.20
2018-01-10T05:42:13.602Z,1.33
2018-01-10T05:44:41.517Z,0.70
2018-01-10T05:47:10.361Z,1.00
2018-01-10T05:49:38.274Z,1.00
2018-01-10T05:52:06.172Z,1.10
2018-01-10T05:54:34.065Z,1.27
2018-01-10T05:57:01.975Z,1.10
2018-01-10T05:59:29.876Z,1.07
2018-01-10T06:01:57.680Z,1.27
2018-01-10T06:04:26.518Z,1.13
2018-01-10T06:06:54.838Z,1.20
2018-01-10T06:09:22.742Z,1.37
2018-01-10T06:11:50.260Z,1.27
2018-01-10T06:14:17.804Z,1.13
2018-01-10T06:16:46.979Z,1.40
2018-01-10T06:19:14.878Z,1.00
2018-01-10T06:21:42.827Z,1.33
2018-01-10T06:24:10.323Z,1.07
2018-01-10T06:26:37.960Z,0.80
2018-01-10T06:29:05.929Z,1.83
2018-01-10T06:31:33.851Z,1.37
2018-01-10T06:34:01.750Z,0.80
2018-01-10T06:36:29.279Z,1.10
2018-01-10T06:38:56.770Z,1.20
2018-01-10T06:41:24.250Z,1.50
2018-01-10T06:43:51.777Z,1.10
2018-01-10T06:46:19.678Z,1.30
2018-01-10T06:48:47.591Z,1.30
2018-01-10T06:51:15.082Z,1.00
2018-01-10T06:53:42.986Z,1.40
2018-01-10T06:56:11.242Z,1.20
2018-01-10T06:58:39.181Z,1.10
2018-01-10T07:01:06.671Z,2.00
2018-01-10T07:03:35.322Z,2.23
2018-01-10T07:06:03.218Z,1.53
2018-01-10T07:08:30.734Z,1.97
2018-01-10T07:10:58.626Z,1.20
2018-01-10T07:13:26.547Z,1.60
2018-01-10T07:15:54.056Z,1.20
2018-01-10T07:18:22.354Z,1.60
2018-01-10T07:20:50.253Z,1.17
2018-01-10T07:23:18.162Z,1.20
2018-01-10T07:25:46.050Z,1.80
2018-01-10T07:28:13.562Z,1.40
2018-01-10T07:30:41.453Z,1.20
2018-01-10T07:33:08.969Z,1.10
2018-01-10T07:35:36.459Z,1.57
2018-01-10T07:38:04.363Z,1.00
2018-01-10T07:40:32.262Z,1.13
2018-01-10T07:42:59.794Z,1.00
2018-01-10T07:45:27.680Z,1.00
2018-01-10T07:47:55.194Z,1.50
2018-01-10T07:50:22.690Z,0.90
2018-01-10T07:52:50.612Z,1.20
2018-01-10T07:55:18.108Z,1.20
2018-01-10T07:57:46.022Z,1.27
2018-01-10T08:00:13.916Z,1.50
2018-01-10T08:02:41.807Z,1.10
2018-01-10T08:05:09.314Z,1.00
2018-01-10T08:07:37.211Z,1.40
2018-01-10T08:10:04.725Z,1.20
2018-01-10T08:12:32.231Z,0.80
2018-01-10T08:14:59.748Z,1.20
2018-01-10T08:17:27.638Z,1.10
2018-01-10T08:19:55.151Z,1.00
2018-01-10T08:22:22.654Z,1.40
2018-01-10T08:24:50.190Z,1.47
2018-01-10T08:27:17.682Z,1.73
2018-01-10T08:29:45.591Z,1.80
2018-01-10T08:32:13.518Z,2.40
2018-01-10T08:34:41.419Z,2.30
2018-01-10T08:37:08.946Z,2.80
2018-01-10T08:39:36.839Z,2.83
2018-01-10T08:42:04.372Z,1.83
2018-01-10T08:44:31.874Z,2.70
2018-01-10T08:47:00.152Z,2.07
2018-01-10T08:49:27.658Z,2.20
2018-01-10T08:51:55.973Z,2.27
2018-01-10T08:54:23.868Z,2.23
2018-01-10T08:56:51.366Z,2.30
2018-01-10T08:59:18.876Z,2.40
2018-01-10T09:01:46.386Z,1.80
2018-01-10T09:04:13.911Z,1.87
2018-01-10T09:06:41.426Z,2.63
2018-01-10T09:09:08.952Z,3.30
2018-01-10T09:11:36.445Z,2.47
2018-01-10T09:14:04.368Z,2.50
2018-01-10T09:16:31.866Z,2.03
2018-01-10T09:18:59.394Z,2.67
2018-01-10T09:21:26.887Z,2.53
2018-01-10T09:23:54.389Z,1.53
2018-01-10T09:26:22.294Z,1.10
2018-01-10T09:28:49.800Z,0.90
2018-01-10T09:31:17.305Z,0.90
2018-01-10T09:33:44.790Z,1.10
2018-01-10T09:36:13.447Z,0.80
2018-01-10T09:38:41.377Z,1.00
2018-01-10T09:41:09.662Z,0.80
2018-01-10T09:43:37.158Z,0.93
2018-01-10T09:46:05.098Z,0.70
2018-01-10T09:48:32.619Z,1.10
2018-01-10T09:51:00.115Z,0.90
2018-01-10T09:53:27.628Z,0.70
2018-01-10T09:55:55.518Z,0.80
2018-01-10T09:58:23.807Z,0.80
2018-01-10T10:00:51.308Z,0.90
2018-01-10T10:03:18.824Z,0.87
2018-01-10T10:05:46.314Z,1.10
2018-01-10T10:08:14.226Z,0.90
2018-01-10T10:10:41.714Z,1.00
2018-01-10T10:13:09.247Z,1.53
2018-01-10T10:15:37.152Z,1.33
2018-01-10T10:18:04.758Z,1.10
2018-01-10T10:20:32.278Z,1.47
2018-01-10T10:23:00.179Z,1.17
2018-01-10T10:25:27.728Z,1.20
2018-01-10T10:27:55.189Z,1.60
2018-01-10T10:30:23.107Z,1.63
2018-01-10T10:32:50.598Z,1.17
2018-01-10T10:35:18.560Z,1.50
2018-01-10T10:37:46.453Z,1.60
2018-01-10T10:40:13.962Z,1.30
2018-01-10T10:42:41.454Z,1.50
2018-01-10T10:45:08.978Z,1.77
2018-01-10T10:47:36.470Z,1.57
2018-01-10T10:50:05.109Z,1.80
2018-01-10T10:52:34.130Z,2.43
2018-01-10T10:55:03.312Z,2.10
2018-01-10T10:57:30.861Z,1.73
2018-01-10T10:59:58.346Z,1.97
2018-01-10T11:02:25.876Z,2.30
2018-01-10T11:04:53.381Z,2.07
2018-01-10T11:07:21.299Z,2.83
2018-01-10T11:09:48.803Z,2.83
2018-01-10T11:12:17.478Z,2.97
2018-01-10T11:14:44.974Z,3.03
2018-01-10T11:17:12.465Z,3.40
2018-01-10T11:19:40.375Z,2.80
2018-01-10T11:22:07.870Z,3.07
2018-01-10T11:24:35.786Z,2.60
2018-01-10T11:27:04.101Z,2.93
2018-01-10T11:29:31.744Z,3.10
2018-01-10T11:31:59.638Z,3.53
2018-01-10T11:34:27.542Z,3.60
2018-01-10T11:36:55.438Z,3.10
2018-01-10T11:39:23.346Z,4.00
2018-01-10T11:41:50.831Z,3.50
2018-01-10T11:44:18.720Z,3.50
2018-01-10T11:46:46.618Z,3.40
2018-01-10T11:49:14.519Z,3.07
2018-01-10T11:51:43.174Z,3.47
2018-01-10T11:54:10.674Z,4.27
2018-01-10T11:56:38.191Z,3.77
2018-01-10T11:59:05.684Z,3.60
2018-01-10T12:01:33.214Z,3.33
2018-01-10T12:04:01.221Z,3.20
2018-01-10T12:06:30.105Z,3.50
2018-01-10T12:08:57.602Z,3.57
2018-01-10T12:11:26.594Z,4.00
2018-01-10T12:13:54.502Z,3.93
2018-01-10T12:16:21.994Z,2.87
2018-01-10T12:18:49.914Z,2.93
2018-01-10T12:21:17.410Z,3.70
2018-01-10T12:23:44.929Z,3.17
2018-01-10T12:26:12.421Z,3.93
2018-01-10T12:28:39.955Z,3.60
2018-01-10T12:31:07.453Z,2.73
2018-01-10T12:33:34.997Z,3.60
2018-01-10T12:36:02.502Z,4.00
2018-01-10T12:38:30.394Z,3.90
2018-01-10T12:40:58.302Z,3.23
2018-01-10T12:43:26.569Z,3.27
2018-01-10T12:45:54.499Z,3.70
2018-01-10T12:48:21.995Z,3.70
2018-01-10T12:50:49.903Z,4.40
2018-01-10T12:53:17.799Z,4.07
2018-01-10T12:55:45.399Z,4.53
2018-01-10T12:58:13.675Z,4.57
2018-01-10T13:00:41.574Z,4.07
2018-01-10T13:03:09.096Z,5.00
2018-01-10T13:05:36.591Z,4.70
2018-01-10T13:08:04.106Z,4.80
2018-01-10T13:10:32.015Z,4.93
2018-01-10T13:12:59.926Z,4.80
2018-01-10T13:15:27.822Z,4.33
2018-01-10T13:17:55.342Z,5.23
2018-01-10T13:20:23.281Z,5.03
2018-01-10T13:22:50.769Z,6.03
2018-01-10T13:25:18.286Z,5.73
2018-01-10T13:27:46.174Z,4.97
2018-01-10T13:30:14.074Z,4.87
2018-01-10T13:32:41.566Z,5.60
2018-01-10T13:35:09.489Z,4.83
2018-01-10T13:37:37.388Z,4.93
2018-01-10T13:40:04.915Z,4.90
2018-01-10T13:42:32.809Z,4.50
2018-01-10T13:45:00.340Z,4.50
2018-01-10T13:47:28.622Z,4.50
2018-01-10T13:49:56.118Z,4.77
2018-01-10T13:52:23.639Z,5.33
2018-01-10T13:54:51.131Z,5.33
2018-01-10T13:57:19.063Z,3.93
2018-01-10T13:59:46.954Z,4.60
2018-01-10T14:02:15.251Z,5.07
2018-01-10T14:04:43.145Z,6.00
2018-01-10T14:07:11.423Z,5.80
2018-01-10T14:09:39.678Z,5.90
2018-01-10T14:12:07.968Z,5.93
2018-01-10T14:14:36.243Z,6.23
2018-01-10T14:17:04.144Z,6.07
2018-01-10T14:19:31.661Z,6.20
2018-01-10T14:21:59.157Z,6.63
2018-01-10T14:24:27.067Z,6.43
2018-01-10T14:26:54.989Z,6.87
2018-01-10T14:29:22.516Z,6.70
2018-01-10T14:31:50.003Z,7.40
2018-01-10T14:34:17.525Z,7.30
2018-01-10T14:36:45.417Z,7.03
2018-01-10T14:39:13.337Z,8.93
2018-01-10T14:41:40.830Z,7.40
2018-01-10T14:44:08.322Z,7.50
2018-01-10T14:46:36.227Z,7.93
2018-01-10T14:49:03.718Z,7.23
2018-01-10T14:51:31.237Z,7.10
2018-01-10T14:53:58.738Z,7.10
2018-01-10T14:56:27.014Z,7.77
2018-01-10T14:58:55.020Z,6.93
2018-01-10T15:01:22.954Z,7.40
2018-01-10T15:03:50.846Z,6.60
2018-01-10T15:06:19.122Z,7.43
2018-01-10T15:08:47.399Z,6.57
2018-01-10T15:11:14.894Z,7.37
2018-01-10T15:13:42.411Z,6.90
2018-01-10T15:16:09.910Z,7.10
2018-01-10T15:18:37.827Z,7.57
2018-01-10T15:21:05.330Z,6.90
2018-01-10T15:23:32.867Z,7.57
2018-01-10T15:26:00.362Z,6.33
2018-01-10T15:28:29.014Z,5.53
2018-01-10T15:30:57.318Z,7.70
2018-01-10T15:33:25.314Z,6.60
2018-01-10T15:35:53.575Z,5.60
2018-01-10T15:38:21.458Z,6.63
2018-01-10T15:40:48.982Z,6.13
2018-01-10T15:43:16.866Z,5.33
2018-01-10T15:45:44.786Z,5.57
2018-01-10T15:48:12.289Z,5.97
2018-01-10T15:50:39.906Z,15.23
2018-01-10T15:53:07.808Z,8.53
2018-01-10T15:55:36.098Z,5.53
2018-01-10T15:58:03.607Z,14.10
2018-01-10T16:00:31.555Z,11.33
2018-01-10T16:02:59.057Z,7.43
2018-01-10T16:05:26.971Z,6.17
2018-01-10T16:07:54.891Z,6.87
2018-01-10T16:10:23.202Z,7.10
2018-01-10T16:12:50.692Z,6.33
2018-01-10T16:15:18.187Z,7.43
2018-01-10T16:17:45.702Z,7.63
2018-01-10T16:20:13.595Z,7.37
2018-01-10T16:22:41.119Z,9.37
2018-01-10T16:25:09.023Z,7.87
2018-01-10T16:27:36.546Z,8.17
2018-01-10T16:30:04.480Z,7.07
2018-01-10T16:32:32.394Z,7.03
2018-01-10T16:35:00.282Z,6.20
2018-01-10T16:37:28.935Z,7.30
2018-01-10T16:39:56.430Z,6.80
2018-01-10T16:42:24.344Z,7.60
2018-01-10T16:44:51.835Z,6.13
2018-01-10T16:47:19.358Z,7.97
2018-01-10T16:49:47.255Z,6.70
2018-01-10T16:52:14.772Z,7.10
2018-01-10T16:54:42.264Z,6.70
2018-01-10T16:57:09.785Z,7.07
2018-01-10T16:59:37.318Z,7.37
2018-01-10T17:02:05.216Z,6.60
2018-01-10T17:04:32.743Z,6.43
2018-01-10T17:07:00.642Z,7.27
2018-01-10T17:09:28.169Z,7.63
2018-01-10T17:11:56.072Z,6.93
2018-01-10T17:14:23.597Z,7.67
2018-01-10T17:16:51.495Z,8.10
2018-01-10T17:19:19.411Z,7.10
2018-01-10T17:21:47.294Z,6.90
2018-01-10T17:24:15.329Z,6.50
2018-01-10T17:26:43.594Z,6.60
2018-01-10T17:29:11.486Z,7.03
2018-01-10T17:31:39.418Z,6.67
2018-01-10T17:34:06.905Z,5.53
2018-01-10T17:36:34.438Z,6.47
2018-01-10T17:39:02.343Z,5.80
2018-01-10T17:41:30.631Z,7.37
2018-01-10T17:43:59.258Z,7.30
2018-01-10T17:46:27.167Z,7.60
2018-01-10T17:48:55.119Z,10.10
2018-01-10T17:51:22.618Z,9.00
2018-01-10T17:53:50.510Z,8.23
2018-01-10T17:56:18.030Z,9.90
2018-01-10T17:58:45.914Z,8.37
2018-01-10T18:01:13.413Z,9.73
2018-01-10T18:03:40.934Z,9.73
2018-01-10T18:06:08.822Z,11.40
2018-01-10T18:08:36.748Z,13.17
2018-01-10T18:11:04.265Z,12.90
2018-01-10T18:13:31.863Z,12.97
2018-01-10T18:15:59.792Z,12.77
2018-01-10T18:18:27.701Z,11.93
2018-01-10T18:20:55.601Z,13.17
2018-01-10T18:23:23.534Z,10.63
2018-01-10T18:25:51.426Z,9.90
2018-01-10T18:28:19.370Z,10.73
2018-01-10T18:30:46.866Z,10.03
2018-01-10T18:33:14.360Z,9.07
2018-01-10T18:35:41.889Z,12.03
2018-01-10T18:38:09.402Z,10.17
2018-01-10T18:40:37.323Z,7.80
2018-01-10T18:43:04.826Z,8.83
2018-01-10T18:45:32.737Z,7.40
2018-01-10T18:48:00.251Z,8.20
2018-01-10T18:50:28.540Z,8.37
2018-01-10T18:52:56.055Z,10.30
2018-01-10T18:55:23.962Z,8.00
2018-01-10T18:57:52.230Z,7.33
2018-01-10T19:00:19.910Z,8.53
2018-01-10T19:02:47.435Z,9.63
2018-01-10T19:05:15.496Z,8.93
2018-01-10T19:07:43.375Z,8.57
2018-01-10T19:10:11.273Z,10.20
2018-01-10T19:12:38.814Z,8.00
2018-01-10T19:15:06.786Z,9.03
2018-01-10T19:17:34.750Z,8.07
2018-01-10T19:20:02.684Z,8.67
2018-01-10T19:22:30.632Z,9.73
2018-01-10T19:24:58.927Z,7.40
2018-01-10T19:27:26.447Z,7.50
2018-01-10T19:29:53.958Z,3.87
2018-01-10T19:32:22.995Z,4.80
2018-01-10T19:34:52.015Z,3.03
2018-01-10T19:37:19.540Z,3.77
2018-01-10T19:39:47.794Z,3.17
2018-01-10T19:42:15.722Z,4.10
2018-01-10T19:44:44.354Z,4.50
2018-01-10T19:47:11.858Z,4.80
2018-01-10T19:49:39.778Z,6.60
2018-01-10T19:52:08.090Z,8.37
2018-01-10T19:54:37.008Z,5.57
2018-01-10T19:57:04.918Z,4.33
2018-01-10T19:59:33.579Z,5.63
2018-01-10T20:02:01.486Z,4.00
2018-01-10T20:04:29.422Z,5.23
